sensor_id;sensor_type;location;lat;lon;timestamp;temperature;humidity
9776;DHT22;4927;52.472;13.108;2022-07-23T00:02:09;16.00;99.90
9776;DHT22;4927;52.472;13.108;2022-07-23T00:07:16;16.00;99.90
9776;DHT22;4927;52.472;13.108;2022-07-23T00:12:22;16.10;99.90
9776;DHT22;4927;52.472;13.108;2022-07-23T00:17:28;16.10;99.90
9776;DHT22;4927;52.472;13.108;2022-07-23T00:22:34;16.10;99.90
9776;DHT22;4927;52.472;13.108;2022-07-23T00:27:41;16.10;99.90
9776;DHT22;4927;52.472;13.108;2022-07-23T00:32:50;16.10;99.90
9776;DHT22;4927;52.472;13.108;2022-07-23T00:37:55;16.10;99.90
9776;DHT22;4927;52.472;13.108;2022-07-23T00:43:02;16.10;99.90
9776;DHT22;4927;52.472;13.108;2022-07-23T00:48:09;16.10;99.90
9776;DHT22;4927;52.472;13.108;2022-07-23T00:53:15;16.10;99.90
9776;DHT22;4927;52.472;13.108;2022-07-23T00:58:22;16.10;99.90
9776;DHT22;4927;52.472;13.108;2022-07-23T01:03:28;16.00;99.90
9776;DHT22;4927;52.472;13.108;2022-07-23T01:08:34;15.90;99.90
9776;DHT22;4927;52.472;13.108;2022-07-23T01:13:42;15.80;99.90
9776;DHT22;4927;52.472;13.108;2022-07-23T01:18:47;15.70;99.90
9776;DHT22;4927;52.472;13.108;2022-07-23T01:23:53;15.70;99.90
9776;DHT22;4927;52.472;13.108;2022-07-23T01:28:59;15.60;99.90
9776;DHT22;4927;52.472;13.108;2022-07-23T01:34:10;15.50;99.90
9776;DHT22;4927;52.472;13.108;2022-07-23T01:39:16;15.50;99.90
9776;DHT22;4927;52.472;13.108;2022-07-23T01:44:23;15.50;99.90
9776;DHT22;4927;52.472;13.108;2022-07-23T01:49:29;15.50;99.90
9776;DHT22;4927;52.472;13.108;2022-07-23T01:54:36;15.50;99.90
9776;DHT22;4927;52.472;13.108;2022-07-23T01:59:42;15.60;99.90
9776;DHT22;4927;52.472;13.108;2022-07-23T02:04:48;15.60;99.90
9776;DHT22;4927;52.472;13.108;2022-07-23T02:09:54;15.70;99.90
9776;DHT22;4927;52.472;13.108;2022-07-23T02:15:01;15.60;99.90
9776;DHT22;4927;52.472;13.108;2022-07-23T02:20:10;15.50;99.90
9776;DHT22;4927;52.472;13.108;2022-07-23T02:25:16;15.50;99.90
9776;DHT22;4927;52.472;13.108;2022-07-23T02:30:22;15.50;99.90
9776;DHT22;4927;52.472;13.108;2022-07-23T02:35:29;15.40;99.90
9776;DHT22;4927;52.472;13.108;2022-07-23T02:40:35;15.50;99.90
9776;DHT22;4927;52.472;13.108;2022-07-23T02:45:39;15.40;99.90
9776;DHT22;4927;52.472;13.108;2022-07-23T02:50:45;15.40;99.90
9776;DHT22;4927;52.472;13.108;2022-07-23T02:55:52;15.40;99.90
9776;DHT22;4927;52.472;13.108;2022-07-23T03:00:59;15.50;99.90
9776;DHT22;4927;52.472;13.108;2022-07-23T03:06:06;15.50;99.90
9776;DHT22;4927;52.472;13.108;2022-07-23T03:11:12;15.50;99.90
9776;DHT22;4927;52.472;13.108;2022-07-23T03:16:16;15.60;99.90
9776;DHT22;4927;52.472;13.108;2022-07-23T03:21:21;15.60;99.90
9776;DHT22;4927;52.472;13.108;2022-07-23T03:26:27;15.60;99.90
9776;DHT22;4927;52.472;13.108;2022-07-23T03:31:33;15.50;99.90
9776;DHT22;4927;52.472;13.108;2022-07-23T03:36:39;15.70;99.90
9776;DHT22;4927;52.472;13.108;2022-07-23T03:41:46;15.70;99.90
9776;DHT22;4927;52.472;13.108;2022-07-23T03:46:52;15.70;99.90
9776;DHT22;4927;52.472;13.108;2022-07-23T03:51:58;15.70;99.90
9776;DHT22;4927;52.472;13.108;2022-07-23T03:57:05;15.70;99.90
9776;DHT22;4927;52.472;13.108;2022-07-23T04:02:11;15.90;99.90
9776;DHT22;4927;52.472;13.108;2022-07-23T04:07:17;15.90;99.90
9776;DHT22;4927;52.472;13.108;2022-07-23T04:12:23;15.80;99.90
9776;DHT22;4927;52.472;13.108;2022-07-23T04:17:30;15.50;99.90
9776;DHT22;4927;52.472;13.108;2022-07-23T04:22:36;15.30;99.90
9776;DHT22;4927;52.472;13.108;2022-07-23T04:27:42;15.30;99.90
9776;DHT22;4927;52.472;13.108;2022-07-23T04:32:49;15.30;99.90
9776;DHT22;4927;52.472;13.108;2022-07-23T04:37:53;15.30;99.90
9776;DHT22;4927;52.472;13.108;2022-07-23T04:43:00;15.20;99.90
9776;DHT22;4927;52.472;13.108;2022-07-23T04:48:06;15.20;99.90
9776;DHT22;4927;52.472;13.108;2022-07-23T04:53:12;15.20;99.90
9776;DHT22;4927;52.472;13.108;2022-07-23T04:58:19;15.20;99.90
9776;DHT22;4927;52.472;13.108;2022-07-23T05:03:25;15.20;99.90
9776;DHT22;4927;52.472;13.108;2022-07-23T05:08:31;15.20;99.90
9776;DHT22;4927;52.472;13.108;2022-07-23T05:13:37;15.30;99.90
9776;DHT22;4927;52.472;13.108;2022-07-23T05:18:44;15.40;99.90
9776;DHT22;4927;52.472;13.108;2022-07-23T05:23:50;15.40;99.90
9776;DHT22;4927;52.472;13.108;2022-07-23T05:28:54;15.50;99.90
9776;DHT22;4927;52.472;13.108;2022-07-23T05:34:01;15.50;99.90
9776;DHT22;4927;52.472;13.108;2022-07-23T05:39:07;15.60;99.90
9776;DHT22;4927;52.472;13.108;2022-07-23T05:44:13;15.60;99.90
9776;DHT22;4927;52.472;13.108;2022-07-23T05:49:24;15.70;99.90
9776;DHT22;4927;52.472;13.108;2022-07-23T05:54:31;15.70;99.90
9776;DHT22;4927;52.472;13.108;2022-07-23T05:59:41;15.60;99.90
9776;DHT22;4927;52.472;13.108;2022-07-23T06:04:47;15.70;99.90
9776;DHT22;4927;52.472;13.108;2022-07-23T06:09:53;15.60;99.90
9776;DHT22;4927;52.472;13.108;2022-07-23T06:15:00;15.70;99.90
9776;DHT22;4927;52.472;13.108;2022-07-23T06:20:10;15.70;99.90
9776;DHT22;4927;52.472;13.108;2022-07-23T06:25:17;15.90;99.90
9776;DHT22;4927;52.472;13.108;2022-07-23T06:30:23;16.00;99.90
9776;DHT22;4927;52.472;13.108;2022-07-23T06:35:34;16.10;99.90
9776;DHT22;4927;52.472;13.108;2022-07-23T06:40:40;16.10;99.90
9776;DHT22;4927;52.472;13.108;2022-07-23T06:45:50;16.10;99.90
9776;DHT22;4927;52.472;13.108;2022-07-23T06:51:01;16.10;99.90
9776;DHT22;4927;52.472;13.108;2022-07-23T06:56:07;16.00;99.90
9776;DHT22;4927;52.472;13.108;2022-07-23T07:01:17;16.00;99.90
9776;DHT22;4927;52.472;13.108;2022-07-23T07:06:21;16.20;99.90
9776;DHT22;4927;52.472;13.108;2022-07-23T07:11:28;16.30;99.90
9776;DHT22;4927;52.472;13.108;2022-07-23T07:16:34;16.50;99.90
9776;DHT22;4927;52.472;13.108;2022-07-23T07:21:40;16.60;99.90
9776;DHT22;4927;52.472;13.108;2022-07-23T07:26:47;16.60;99.90
9776;DHT22;4927;52.472;13.108;2022-07-23T07:31:53;16.80;99.90
9776;DHT22;4927;52.472;13.108;2022-07-23T07:36:59;16.90;99.90
9776;DHT22;4927;52.472;13.108;2022-07-23T07:42:06;16.90;99.90
9776;DHT22;4927;52.472;13.108;2022-07-23T07:47:12;16.80;99.90
9776;DHT22;4927;52.472;13.108;2022-07-23T07:52:16;16.90;99.90
9776;DHT22;4927;52.472;13.108;2022-07-23T07:57:23;17.30;99.90
9776;DHT22;4927;52.472;13.108;2022-07-23T08:02:29;17.60;99.90
9776;DHT22;4927;52.472;13.108;2022-07-23T08:07:39;17.70;99.90
9776;DHT22;4927;52.472;13.108;2022-07-23T08:12:46;18.00;99.90
9776;DHT22;4927;52.472;13.108;2022-07-23T08:17:51;18.20;99.90
9776;DHT22;4927;52.472;13.108;2022-07-23T08:22:59;18.50;99.90
9776;DHT22;4927;52.472;13.108;2022-07-23T08:28:06;18.50;99.90
9776;DHT22;4927;52.472;13.108;2022-07-23T08:33:12;18.50;99.90
9776;DHT22;4927;52.472;13.108;2022-07-23T08:38:18;18.60;99.90
9776;DHT22;4927;52.472;13.108;2022-07-23T08:43:24;18.70;99.90
9776;DHT22;4927;52.472;13.108;2022-07-23T08:48:31;19.10;99.90
9776;DHT22;4927;52.472;13.108;2022-07-23T08:53:36;19.30;99.90
9776;DHT22;4927;52.472;13.108;2022-07-23T08:58:42;19.40;99.90
9776;DHT22;4927;52.472;13.108;2022-07-23T09:03:49;19.40;99.90
9776;DHT22;4927;52.472;13.108;2022-07-23T09:08:56;19.40;99.90
9776;DHT22;4927;52.472;13.108;2022-07-23T09:14:02;19.40;99.90
9776;DHT22;4927;52.472;13.108;2022-07-23T09:19:08;19.60;99.90
9776;DHT22;4927;52.472;13.108;2022-07-23T09:24:13;19.60;99.90
9776;DHT22;4927;52.472;13.108;2022-07-23T09:29:22;19.60;99.90
9776;DHT22;4927;52.472;13.108;2022-07-23T09:34:29;19.80;99.90
9776;DHT22;4927;52.472;13.108;2022-07-23T09:39:35;19.90;99.90
9776;DHT22;4927;52.472;13.108;2022-07-23T09:44:44;20.10;99.90
9776;DHT22;4927;52.472;13.108;2022-07-23T09:49:59;20.40;99.90
9776;DHT22;4927;52.472;13.108;2022-07-23T09:55:05;20.60;99.90
9776;DHT22;4927;52.472;13.108;2022-07-23T10:00:12;20.80;99.90
9776;DHT22;4927;52.472;13.108;2022-07-23T10:05:19;20.80;99.90
9776;DHT22;4927;52.472;13.108;2022-07-23T10:10:25;20.70;99.90
9776;DHT22;4927;52.472;13.108;2022-07-23T10:15:33;21.10;99.90
9776;DHT22;4927;52.472;13.108;2022-07-23T10:24:18;21.10;99.90
9776;DHT22;4927;52.472;13.108;2022-07-23T10:29:31;21.30;99.90
9776;DHT22;4927;52.472;13.108;2022-07-23T10:34:36;21.50;99.90
9776;DHT22;4927;52.472;13.108;2022-07-23T10:39:38;21.60;99.90
9776;DHT22;4927;52.472;13.108;2022-07-23T10:44:46;21.50;99.90
9776;DHT22;4927;52.472;13.108;2022-07-23T10:49:52;21.50;99.90
9776;DHT22;4927;52.472;13.108;2022-07-23T10:55:38;21.70;99.90
9776;DHT22;4927;52.472;13.108;2022-07-23T11:00:32;21.90;99.90
9776;DHT22;4927;52.472;13.108;2022-07-23T11:05:40;21.70;99.90
9776;DHT22;4927;52.472;13.108;2022-07-23T11:11:08;21.70;99.90
9776;DHT22;4927;52.472;13.108;2022-07-23T11:16:19;21.90;99.90
9776;DHT22;4927;52.472;13.108;2022-07-23T11:21:40;22.00;99.90
9776;DHT22;4927;52.472;13.108;2022-07-23T11:26:48;22.20;99.90
9776;DHT22;4927;52.472;13.108;2022-07-23T11:31:56;22.40;99.90
9776;DHT22;4927;52.472;13.108;2022-07-23T11:37:02;22.60;99.90
9776;DHT22;4927;52.472;13.108;2022-07-23T11:42:07;22.70;99.90
9776;DHT22;4927;52.472;13.108;2022-07-23T11:47:14;22.90;99.90
9776;DHT22;4927;52.472;13.108;2022-07-23T11:52:18;23.30;99.90
9776;DHT22;4927;52.472;13.108;2022-07-23T11:57:27;23.50;99.90
9776;DHT22;4927;52.472;13.108;2022-07-23T12:02:32;23.50;99.90
9776;DHT22;4927;52.472;13.108;2022-07-23T12:07:37;23.60;99.90
9776;DHT22;4927;52.472;13.108;2022-07-23T12:12:45;23.60;99.90
9776;DHT22;4927;52.472;13.108;2022-07-23T12:17:50;23.60;99.90
9776;DHT22;4927;52.472;13.108;2022-07-23T12:22:58;23.80;99.90
9776;DHT22;4927;52.472;13.108;2022-07-23T12:28:06;24.30;99.90
9776;DHT22;4927;52.472;13.108;2022-07-23T12:33:12;24.30;99.90
9776;DHT22;4927;52.472;13.108;2022-07-23T12:38:21;24.60;99.90
9776;DHT22;4927;52.472;13.108;2022-07-23T12:43:25;24.90;99.90
9776;DHT22;4927;52.472;13.108;2022-07-23T12:48:35;25.10;99.90
9776;DHT22;4927;52.472;13.108;2022-07-23T12:53:42;24.90;99.90
9776;DHT22;4927;52.472;13.108;2022-07-23T12:58:51;24.50;99.90
9776;DHT22;4927;52.472;13.108;2022-07-23T13:04:00;24.60;99.90
9776;DHT22;4927;52.472;13.108;2022-07-23T13:09:07;24.60;99.90
9776;DHT22;4927;52.472;13.108;2022-07-23T13:14:11;24.80;99.90
9776;DHT22;4927;52.472;13.108;2022-07-23T13:19:18;25.00;99.90
9776;DHT22;4927;52.472;13.108;2022-07-23T13:24:24;25.10;99.60
9776;DHT22;4927;52.472;13.108;2022-07-23T13:29:30;25.10;99.70
9776;DHT22;4927;52.472;13.108;2022-07-23T13:34:37;25.00;98.70
9776;DHT22;4927;52.472;13.108;2022-07-23T13:39:43;25.00;98.50
9776;DHT22;4927;52.472;13.108;2022-07-23T13:44:49;25.10;98.10
9776;DHT22;4927;52.472;13.108;2022-07-23T13:49:55;25.30;97.80
9776;DHT22;4927;52.472;13.108;2022-07-23T13:55:04;25.30;96.80
9776;DHT22;4927;52.472;13.108;2022-07-23T14:00:10;25.30;96.60
9776;DHT22;4927;52.472;13.108;2022-07-23T14:05:17;25.10;97.00
9776;DHT22;4927;52.472;13.108;2022-07-23T14:10:23;25.00;95.90
9776;DHT22;4927;52.472;13.108;2022-07-23T14:15:30;24.80;96.40
9776;DHT22;4927;52.472;13.108;2022-07-23T14:20:36;24.80;96.40
9776;DHT22;4927;52.472;13.108;2022-07-23T14:25:42;24.80;96.10
9776;DHT22;4927;52.472;13.108;2022-07-23T14:30:48;24.80;95.30
9776;DHT22;4927;52.472;13.108;2022-07-23T14:35:54;24.80;95.10
9776;DHT22;4927;52.472;13.108;2022-07-23T14:41:02;24.60;94.70
9776;DHT22;4927;52.472;13.108;2022-07-23T14:46:12;25.00;94.60
9776;DHT22;4927;52.472;13.108;2022-07-23T14:51:17;25.00;94.30
9776;DHT22;4927;52.472;13.108;2022-07-23T15:00:56;24.60;93.90
9776;DHT22;4927;52.472;13.108;2022-07-23T15:08:20;24.60;94.70
9776;DHT22;4927;52.472;13.108;2022-07-23T15:13:27;24.70;94.00
9776;DHT22;4927;52.472;13.108;2022-07-23T15:18:34;24.70;94.00
9776;DHT22;4927;52.472;13.108;2022-07-23T15:23:41;25.00;93.10
9776;DHT22;4927;52.472;13.108;2022-07-23T15:33:18;25.00;92.90
9776;DHT22;4927;52.472;13.108;2022-07-23T15:38:24;24.90;93.40
9776;DHT22;4927;52.472;13.108;2022-07-23T15:43:30;24.80;93.40
9776;DHT22;4927;52.472;13.108;2022-07-23T15:52:06;24.70;93.30
9776;DHT22;4927;52.472;13.108;2022-07-23T15:57:13;24.60;92.30
9776;DHT22;4927;52.472;13.108;2022-07-23T16:02:19;24.50;92.20
9776;DHT22;4927;52.472;13.108;2022-07-23T16:07:25;24.50;92.20
9776;DHT22;4927;52.472;13.108;2022-07-23T16:12:32;24.50;91.30
9776;DHT22;4927;52.472;13.108;2022-07-23T16:17:36;24.40;90.60
9776;DHT22;4927;52.472;13.108;2022-07-23T16:22:43;24.30;92.10
9776;DHT22;4927;52.472;13.108;2022-07-23T16:27:48;24.30;91.70
9776;DHT22;4927;52.472;13.108;2022-07-23T16:32:55;24.30;91.80
9776;DHT22;4927;52.472;13.108;2022-07-23T16:38:02;24.30;90.20
9776;DHT22;4927;52.472;13.108;2022-07-23T16:43:08;24.20;90.30
9776;DHT22;4927;52.472;13.108;2022-07-23T16:48:14;24.00;90.70
9776;DHT22;4927;52.472;13.108;2022-07-23T16:53:21;23.80;90.60
9776;DHT22;4927;52.472;13.108;2022-07-23T16:58:27;23.70;90.10
9776;DHT22;4927;52.472;13.108;2022-07-23T17:03:33;23.50;90.20
9776;DHT22;4927;52.472;13.108;2022-07-23T17:08:39;23.50;89.80
9776;DHT22;4927;52.472;13.108;2022-07-23T17:13:46;23.30;90.50
9776;DHT22;4927;52.472;13.108;2022-07-23T17:18:53;23.10;90.10
9776;DHT22;4927;52.472;13.108;2022-07-23T17:23:59;23.10;90.10
9776;DHT22;4927;52.472;13.108;2022-07-23T17:29:05;22.90;90.10
9776;DHT22;4927;52.472;13.108;2022-07-23T17:34:12;22.80;90.20
9776;DHT22;4927;52.472;13.108;2022-07-23T17:39:18;22.60;90.00
9776;DHT22;4927;52.472;13.108;2022-07-23T17:44:24;22.50;90.90
9776;DHT22;4927;52.472;13.108;2022-07-23T17:49:28;22.50;91.00
9776;DHT22;4927;52.472;13.108;2022-07-23T17:54:35;22.40;90.70
9776;DHT22;4927;52.472;13.108;2022-07-23T17:59:41;22.30;90.60
9776;DHT22;4927;52.472;13.108;2022-07-23T18:04:47;22.10;90.40
9776;DHT22;4927;52.472;13.108;2022-07-23T18:09:54;21.90;90.30
9776;DHT22;4927;52.472;13.108;2022-07-23T18:15:00;21.90;89.60
9776;DHT22;4927;52.472;13.108;2022-07-23T18:20:08;21.70;90.40
9776;DHT22;4927;52.472;13.108;2022-07-23T18:25:14;21.50;90.40
9776;DHT22;4927;52.472;13.108;2022-07-23T18:30:20;21.50;90.30
9776;DHT22;4927;52.472;13.108;2022-07-23T18:35:27;21.30;90.60
9776;DHT22;4927;52.472;13.108;2022-07-23T18:40:33;21.10;90.50
9776;DHT22;4927;52.472;13.108;2022-07-23T18:45:39;21.00;91.60
9776;DHT22;4927;52.472;13.108;2022-07-23T18:50:45;20.70;92.30
9776;DHT22;4927;52.472;13.108;2022-07-23T18:55:55;20.70;92.10
9776;DHT22;4927;52.472;13.108;2022-07-23T19:01:02;20.30;93.70
9776;DHT22;4927;52.472;13.108;2022-07-23T19:06:08;20.30;93.50
9776;DHT22;4927;52.472;13.108;2022-07-23T19:11:14;20.10;93.40
9776;DHT22;4927;52.472;13.108;2022-07-23T19:16:21;20.00;94.50
9776;DHT22;4927;52.472;13.108;2022-07-23T19:21:27;19.80;94.70
9776;DHT22;4927;52.472;13.108;2022-07-23T19:26:33;19.60;95.70
9776;DHT22;4927;52.472;13.108;2022-07-23T19:31:39;19.40;95.90
9776;DHT22;4927;52.472;13.108;2022-07-23T19:36:46;19.10;96.80
9776;DHT22;4927;52.472;13.108;2022-07-23T19:41:53;19.10;96.70
9776;DHT22;4927;52.472;13.108;2022-07-23T19:46:59;18.90;97.40
9776;DHT22;4927;52.472;13.108;2022-07-23T19:52:05;18.80;98.50
9776;DHT22;4927;52.472;13.108;2022-07-23T19:57:12;18.40;99.90
9776;DHT22;4927;52.472;13.108;2022-07-23T20:02:19;18.40;99.90
9776;DHT22;4927;52.472;13.108;2022-07-23T20:07:26;18.00;99.90
9776;DHT22;4927;52.472;13.108;2022-07-23T20:12:32;18.00;99.90
9776;DHT22;4927;52.472;13.108;2022-07-23T20:17:38;17.80;99.90
9776;DHT22;4927;52.472;13.108;2022-07-23T20:22:43;17.60;99.90
9776;DHT22;4927;52.472;13.108;2022-07-23T20:27:50;17.40;99.90
9776;DHT22;4927;52.472;13.108;2022-07-23T20:32:56;17.20;99.90
9776;DHT22;4927;52.472;13.108;2022-07-23T20:38:02;17.00;99.90
9776;DHT22;4927;52.472;13.108;2022-07-23T20:43:13;16.90;99.90
9776;DHT22;4927;52.472;13.108;2022-07-23T20:48:19;16.70;99.90
9776;DHT22;4927;52.472;13.108;2022-07-23T20:53:23;16.60;99.90
9776;DHT22;4927;52.472;13.108;2022-07-23T20:58:29;16.40;99.90
9776;DHT22;4927;52.472;13.108;2022-07-23T21:03:36;16.20;99.90
9776;DHT22;4927;52.472;13.108;2022-07-23T21:08:40;16.10;99.90
9776;DHT22;4927;52.472;13.108;2022-07-23T21:13:47;15.90;99.90
9776;DHT22;4927;52.472;13.108;2022-07-23T21:18:53;15.80;99.90
9776;DHT22;4927;52.472;13.108;2022-07-23T21:24:00;15.60;99.90
9776;DHT22;4927;52.472;13.108;2022-07-23T21:29:07;15.50;99.90
9776;DHT22;4927;52.472;13.108;2022-07-23T21:34:13;15.40;99.90
9776;DHT22;4927;52.472;13.108;2022-07-23T21:39:19;15.30;99.90
9776;DHT22;4927;52.472;13.108;2022-07-23T21:44:25;15.30;99.90
9776;DHT22;4927;52.472;13.108;2022-07-23T21:49:32;15.10;99.90
9776;DHT22;4927;52.472;13.108;2022-07-23T21:54:39;15.00;99.90
9776;DHT22;4927;52.472;13.108;2022-07-23T21:59:46;14.90;99.90
9776;DHT22;4927;52.472;13.108;2022-07-23T22:04:52;14.80;99.90
9776;DHT22;4927;52.472;13.108;2022-07-23T22:09:58;14.80;99.90
9776;DHT22;4927;52.472;13.108;2022-07-23T22:15:06;14.70;99.90
9776;DHT22;4927;52.472;13.108;2022-07-23T22:20:13;14.60;99.90
9776;DHT22;4927;52.472;13.108;2022-07-23T22:25:20;14.40;99.90
9776;DHT22;4927;52.472;13.108;2022-07-23T22:30:25;14.40;99.90
9776;DHT22;4927;52.472;13.108;2022-07-23T22:35:32;14.30;99.90
9776;DHT22;4927;52.472;13.108;2022-07-23T22:40:38;14.30;99.90
9776;DHT22;4927;52.472;13.108;2022-07-23T22:45:44;14.20;99.90
9776;DHT22;4927;52.472;13.108;2022-07-23T22:50:50;14.10;99.90
9776;DHT22;4927;52.472;13.108;2022-07-23T22:55:57;14.00;99.90
9776;DHT22;4927;52.472;13.108;2022-07-23T23:01:01;13.90;99.90
9776;DHT22;4927;52.472;13.108;2022-07-23T23:06:07;13.80;99.90
9776;DHT22;4927;52.472;13.108;2022-07-23T23:11:14;13.70;99.90
9776;DHT22;4927;52.472;13.108;2022-07-23T23:16:18;13.70;99.90
9776;DHT22;4927;52.472;13.108;2022-07-23T23:21:24;13.50;99.90
9776;DHT22;4927;52.472;13.108;2022-07-23T23:26:32;13.30;99.90
9776;DHT22;4927;52.472;13.108;2022-07-23T23:31:37;13.20;99.90
9776;DHT22;4927;52.472;13.108;2022-07-23T23:36:43;13.20;99.90
9776;DHT22;4927;52.472;13.108;2022-07-23T23:41:50;13.20;99.90
9776;DHT22;4927;52.472;13.108;2022-07-23T23:46:56;13.10;99.90
9776;DHT22;4927;52.472;13.108;2022-07-23T23:52:00;13.10;99.90
9776;DHT22;4927;52.472;13.108;2022-07-23T23:57:06;13.00;99.90
